sensor_id;sensor_type;location;lat;lon;timestamp;pressure;altitude;pressure_sealevel;temperature;humidity
12213;BME280;6169;44.158;22.788;2022-09-09T00:04:27;100926.06;;;21.05;70.47
12213;BME280;6169;44.158;22.788;2022-09-09T00:09:38;100918.47;;;20.97;70.62
12213;BME280;6169;44.158;22.788;2022-09-09T00:14:48;100910.25;;;20.92;71.21
12213;BME280;6169;44.158;22.788;2022-09-09T00:19:58;100928.69;;;20.97;70.57
12213;BME280;6169;44.158;22.788;2022-09-09T00:25:10;100924.63;;;21.13;70.12
12213;BME280;6169;44.158;22.788;2022-09-09T00:30:16;100923.91;;;21.02;71.32
12213;BME280;6169;44.158;22.788;2022-09-09T00:35:24;100935.22;;;20.82;71.67
12213;BME280;6169;44.158;22.788;2022-09-09T00:40:32;100932.88;;;21.13;70.75
12213;BME280;6169;44.158;22.788;2022-09-09T00:45:56;100946.69;;;21.13;69.94
12213;BME280;6169;44.158;22.788;2022-09-09T00:51:04;100938.91;;;21.20;69.06
12213;BME280;6169;44.158;22.788;2022-09-09T00:56:14;100938.38;;;21.18;69.49
12213;BME280;6169;44.158;22.788;2022-09-09T01:01:19;100929.81;;;20.96;70.97
12213;BME280;6169;44.158;22.788;2022-09-09T01:06:25;100927.81;;;21.01;71.15
12213;BME280;6169;44.158;22.788;2022-09-09T01:11:37;100929.81;;;20.96;71.29
12213;BME280;6169;44.158;22.788;2022-09-09T01:16:45;100929.09;;;21.09;70.17
12213;BME280;6169;44.158;22.788;2022-09-09T01:21:55;100921.19;;;21.45;68.46
12213;BME280;6169;44.158;22.788;2022-09-09T01:27:02;100925.31;;;21.62;67.32
12213;BME280;6169;44.158;22.788;2022-09-09T01:32:40;100913.84;;;21.55;66.75
12213;BME280;6169;44.158;22.788;2022-09-09T01:37:42;100919.91;;;21.38;67.80
12213;BME280;6169;44.158;22.788;2022-09-09T01:42:46;100925.47;;;21.09;69.10
12213;BME280;6169;44.158;22.788;2022-09-09T01:47:48;100927.78;;;21.25;68.26
12213;BME280;6169;44.158;22.788;2022-09-09T01:52:53;100927.72;;;21.31;67.87
12213;BME280;6169;44.158;22.788;2022-09-09T01:58:10;100937.97;;;21.06;67.73
12213;BME280;6169;44.158;22.788;2022-09-09T02:03:19;100941.69;;;20.72;69.77
12213;BME280;6169;44.158;22.788;2022-09-09T02:08:28;100941.00;;;20.80;68.99
12213;BME280;6169;44.158;22.788;2022-09-09T02:13:37;100774.44;;;20.09;68.79
12213;BME280;6169;44.158;22.788;2022-09-09T02:18:45;100916.06;;;21.34;67.79
12213;BME280;6169;44.158;22.788;2022-09-09T02:23:50;100912.56;;;21.47;66.66
12213;BME280;6169;44.158;22.788;2022-09-09T02:28:57;100917.47;;;21.12;68.24
12213;BME280;6169;44.158;22.788;2022-09-09T02:34:01;100921.47;;;21.44;67.03
12213;BME280;6169;44.158;22.788;2022-09-09T02:39:08;100917.56;;;21.45;66.78
12213;BME280;6169;44.158;22.788;2022-09-09T02:44:14;100921.38;;;21.30;67.58
12213;BME280;6169;44.158;22.788;2022-09-09T02:49:22;100918.09;;;21.47;66.35
12213;BME280;6169;44.158;22.788;2022-09-09T02:54:28;100915.47;;;21.37;66.86
12213;BME280;6169;44.158;22.788;2022-09-09T02:59:33;100912.88;;;21.26;68.08
12213;BME280;6169;44.158;22.788;2022-09-09T03:04:36;100916.75;;;21.25;67.35
12213;BME280;6169;44.158;22.788;2022-09-09T03:09:38;100922.56;;;21.00;67.70
12213;BME280;6169;44.158;22.788;2022-09-09T03:14:41;100938.16;;;21.15;67.33
12213;BME280;6169;44.158;22.788;2022-09-09T03:19:46;100942.91;;;20.61;69.00
12213;BME280;6169;44.158;22.788;2022-09-09T03:24:50;100937.22;;;20.76;69.73
12213;BME280;6169;44.158;22.788;2022-09-09T03:29:53;100939.00;;;21.10;68.45
12213;BME280;6169;44.158;22.788;2022-09-09T03:34:56;100917.59;;;21.26;66.69
12213;BME280;6169;44.158;22.788;2022-09-09T03:39:58;100906.38;;;21.17;67.15
12213;BME280;6169;44.158;22.788;2022-09-09T03:45:03;100915.34;;;21.04;67.85
12213;BME280;6169;44.158;22.788;2022-09-09T03:50:07;100914.06;;;21.20;66.47
12213;BME280;6169;44.158;22.788;2022-09-09T03:55:11;100936.84;;;20.59;68.35
12213;BME280;6169;44.158;22.788;2022-09-09T04:00:14;100929.00;;;20.95;68.93
12213;BME280;6169;44.158;22.788;2022-09-09T04:05:17;100931.44;;;21.21;66.75
12213;BME280;6169;44.158;22.788;2022-09-09T04:10:19;100941.28;;;21.03;67.30
12213;BME280;6169;44.158;22.788;2022-09-09T04:15:23;100948.97;;;21.30;65.38
12213;BME280;6169;44.158;22.788;2022-09-09T04:20:25;100957.03;;;21.02;67.97
12213;BME280;6169;44.158;22.788;2022-09-09T04:25:27;100951.75;;;21.30;66.97
12213;BME280;6169;44.158;22.788;2022-09-09T04:30:30;100964.66;;;21.35;66.28
12213;BME280;6169;44.158;22.788;2022-09-09T04:35:33;100957.28;;;21.06;67.57
12213;BME280;6169;44.158;22.788;2022-09-09T04:40:35;100959.63;;;20.94;69.18
12213;BME280;6169;44.158;22.788;2022-09-09T04:45:47;100953.56;;;20.92;69.29
12213;BME280;6169;44.158;22.788;2022-09-09T04:50:56;100964.91;;;21.14;68.83
12213;BME280;6169;44.158;22.788;2022-09-09T04:56:02;100969.28;;;21.20;68.80
12213;BME280;6169;44.158;22.788;2022-09-09T05:01:08;100972.19;;;21.48;68.10
12213;BME280;6169;44.158;22.788;2022-09-09T05:06:12;100980.03;;;21.79;66.69
12213;BME280;6169;44.158;22.788;2022-09-09T05:11:16;100988.78;;;21.67;67.35
12213;BME280;6169;44.158;22.788;2022-09-09T05:16:21;100991.00;;;21.65;68.33
12213;BME280;6169;44.158;22.788;2022-09-09T05:21:24;100983.59;;;21.84;67.70
12213;BME280;6169;44.158;22.788;2022-09-09T05:26:28;100978.50;;;21.91;67.13
12213;BME280;6169;44.158;22.788;2022-09-09T05:31:33;100960.84;;;22.39;64.58
12213;BME280;6169;44.158;22.788;2022-09-09T05:36:35;100958.19;;;22.34;66.40
12213;BME280;6169;44.158;22.788;2022-09-09T05:41:37;100961.88;;;22.43;66.02
12213;BME280;6169;44.158;22.788;2022-09-09T05:46:42;100959.94;;;22.44;66.08
12213;BME280;6169;44.158;22.788;2022-09-09T05:51:45;100965.88;;;22.37;66.77
12213;BME280;6169;44.158;22.788;2022-09-09T05:56:47;100959.16;;;22.57;65.90
12213;BME280;6169;44.158;22.788;2022-09-09T06:01:54;100968.84;;;22.87;63.27
12213;BME280;6169;44.158;22.788;2022-09-09T06:06:57;100981.47;;;22.14;68.54
12213;BME280;6169;44.158;22.788;2022-09-09T06:11:59;100983.66;;;21.98;69.60
12213;BME280;6169;44.158;22.788;2022-09-09T06:17:03;100987.66;;;22.25;68.94
12213;BME280;6169;44.158;22.788;2022-09-09T06:22:06;100969.72;;;22.55;67.50
12213;BME280;6169;44.158;22.788;2022-09-09T06:27:08;100968.63;;;22.97;63.71
12213;BME280;6169;44.158;22.788;2022-09-09T06:32:12;100956.34;;;23.03;64.46
12213;BME280;6169;44.158;22.788;2022-09-09T06:37:14;100963.19;;;23.34;62.83
12213;BME280;6169;44.158;22.788;2022-09-09T06:42:17;100971.47;;;23.47;62.08
12213;BME280;6169;44.158;22.788;2022-09-09T06:47:20;100975.63;;;23.59;62.46
12213;BME280;6169;44.158;22.788;2022-09-09T06:52:23;100992.56;;;23.71;61.73
12213;BME280;6169;44.158;22.788;2022-09-09T06:57:25;100986.44;;;23.97;60.96
12213;BME280;6169;44.158;22.788;2022-09-09T07:02:29;100980.94;;;24.28;59.21
12213;BME280;6169;44.158;22.788;2022-09-09T07:07:31;100987.69;;;24.58;57.78
12213;BME280;6169;44.158;22.788;2022-09-09T07:12:33;100988.00;;;24.34;57.05
12213;BME280;6169;44.158;22.788;2022-09-09T07:17:37;100999.56;;;24.50;57.43
12213;BME280;6169;44.158;22.788;2022-09-09T07:22:39;101008.66;;;25.04;52.46
12213;BME280;6169;44.158;22.788;2022-09-09T07:27:41;101009.28;;;25.01;56.16
12213;BME280;6169;44.158;22.788;2022-09-09T07:32:45;101007.56;;;24.82;56.68
12213;BME280;6169;44.158;22.788;2022-09-09T07:37:47;101011.06;;;24.66;57.00
12213;BME280;6169;44.158;22.788;2022-09-09T07:42:49;101012.28;;;25.13;55.17
12213;BME280;6169;44.158;22.788;2022-09-09T07:47:53;101019.44;;;25.05;54.71
12213;BME280;6169;44.158;22.788;2022-09-09T07:52:58;101015.94;;;24.60;54.21
12213;BME280;6169;44.158;22.788;2022-09-09T07:58:00;101007.94;;;25.38;52.61
12213;BME280;6169;44.158;22.788;2022-09-09T08:03:03;101015.84;;;25.62;52.91
12213;BME280;6169;44.158;22.788;2022-09-09T08:08:06;101009.66;;;25.65;52.68
12213;BME280;6169;44.158;22.788;2022-09-09T08:13:09;101016.84;;;25.75;52.92
12213;BME280;6169;44.158;22.788;2022-09-09T08:18:13;101018.44;;;25.59;53.44
12213;BME280;6169;44.158;22.788;2022-09-09T08:23:15;101019.06;;;25.56;53.90
12213;BME280;6169;44.158;22.788;2022-09-09T08:28:17;101020.34;;;25.32;55.62
12213;BME280;6169;44.158;22.788;2022-09-09T08:33:21;101017.66;;;25.84;54.55
12213;BME280;6169;44.158;22.788;2022-09-09T08:38:23;101010.31;;;26.06;54.37
12213;BME280;6169;44.158;22.788;2022-09-09T08:43:27;101015.69;;;25.76;53.88
12213;BME280;6169;44.158;22.788;2022-09-09T08:48:43;101017.50;;;25.98;52.67
12213;BME280;6169;44.158;22.788;2022-09-09T08:53:51;101006.06;;;25.91;53.48
12213;BME280;6169;44.158;22.788;2022-09-09T08:58:54;100956.09;;;25.34;55.06
12213;BME280;6169;44.158;22.788;2022-09-09T09:04:03;100981.97;;;25.43;55.72
12213;BME280;6169;44.158;22.788;2022-09-09T09:09:16;100990.50;;;25.64;53.17
12213;BME280;6169;44.158;22.788;2022-09-09T09:14:22;100988.06;;;25.71;53.45
12213;BME280;6169;44.158;22.788;2022-09-09T09:19:27;100980.94;;;25.30;51.86
12213;BME280;6169;44.158;22.788;2022-09-09T09:24:39;100981.63;;;25.53;49.80
12213;BME280;6169;44.158;22.788;2022-09-09T09:29:44;100982.44;;;25.54;48.59
12213;BME280;6169;44.158;22.788;2022-09-09T09:34:51;100973.63;;;25.43;49.73
12213;BME280;6169;44.158;22.788;2022-09-09T09:40:08;100984.56;;;25.48;50.88
12213;BME280;6169;44.158;22.788;2022-09-09T09:45:17;100979.34;;;25.55;50.58
12213;BME280;6169;44.158;22.788;2022-09-09T09:50:24;100995.09;;;26.03;48.99
12213;BME280;6169;44.158;22.788;2022-09-09T09:55:28;100995.41;;;25.76;48.80
12213;BME280;6169;44.158;22.788;2022-09-09T10:00:32;100997.00;;;25.59;49.38
12213;BME280;6169;44.158;22.788;2022-09-09T10:05:37;101000.00;;;25.98;49.13
12213;BME280;6169;44.158;22.788;2022-09-09T10:11:05;100992.47;;;25.63;50.25
12213;BME280;6169;44.158;22.788;2022-09-09T10:16:20;101007.69;;;25.66;50.47
12213;BME280;6169;44.158;22.788;2022-09-09T10:21:53;101000.00;;;26.06;49.16
12213;BME280;6169;44.158;22.788;2022-09-09T10:27:05;100996.75;;;26.30;49.52
12213;BME280;6169;44.158;22.788;2022-09-09T10:32:31;101004.94;;;26.74;49.21
12213;BME280;6169;44.158;22.788;2022-09-09T10:38:10;100989.28;;;26.60;49.52
12213;BME280;6169;44.158;22.788;2022-09-09T10:43:24;100994.88;;;26.43;51.00
12213;BME280;6169;44.158;22.788;2022-09-09T10:48:37;100992.47;;;26.33;50.26
12213;BME280;6169;44.158;22.788;2022-09-09T10:53:55;100994.69;;;26.57;48.89
12213;BME280;6169;44.158;22.788;2022-09-09T10:59:03;100990.81;;;26.32;49.16
12213;BME280;6169;44.158;22.788;2022-09-09T11:04:13;100979.22;;;26.30;50.45
12213;BME280;6169;44.158;22.788;2022-09-09T11:09:22;100979.34;;;26.42;48.75
12213;BME280;6169;44.158;22.788;2022-09-09T11:14:29;100970.41;;;26.75;47.88
12213;BME280;6169;44.158;22.788;2022-09-09T11:19:35;100978.91;;;26.87;46.97
12213;BME280;6169;44.158;22.788;2022-09-09T11:24:41;100978.34;;;26.55;47.23
12213;BME280;6169;44.158;22.788;2022-09-09T11:29:59;100964.00;;;26.74;44.90
12213;BME280;6169;44.158;22.788;2022-09-09T11:35:18;100957.22;;;27.22;43.39
12213;BME280;6169;44.158;22.788;2022-09-09T11:40:25;100948.31;;;27.59;42.89
12213;BME280;6169;44.158;22.788;2022-09-09T11:45:28;100931.75;;;28.29;41.94
12213;BME280;6169;44.158;22.788;2022-09-09T11:50:34;100931.84;;;28.20;41.76
12213;BME280;6169;44.158;22.788;2022-09-09T11:55:38;100927.91;;;27.67;42.24
12213;BME280;6169;44.158;22.788;2022-09-09T12:00:42;100926.53;;;27.94;42.28
12213;BME280;6169;44.158;22.788;2022-09-09T12:05:45;100924.81;;;27.81;42.31
12213;BME280;6169;44.158;22.788;2022-09-09T12:10:55;100923.41;;;27.75;41.93
12213;BME280;6169;44.158;22.788;2022-09-09T12:16:01;100918.69;;;27.87;43.19
12213;BME280;6169;44.158;22.788;2022-09-09T12:21:11;100916.53;;;28.38;42.56
12213;BME280;6169;44.158;22.788;2022-09-09T12:26:31;100917.00;;;28.41;42.54
12213;BME280;6169;44.158;22.788;2022-09-09T12:31:40;100904.97;;;28.61;41.59
12213;BME280;6169;44.158;22.788;2022-09-09T12:36:50;100894.06;;;29.74;39.61
12213;BME280;6169;44.158;22.788;2022-09-09T12:41:57;100879.72;;;30.35;38.64
12213;BME280;6169;44.158;22.788;2022-09-09T12:47:01;100867.13;;;29.97;38.93
12213;BME280;6169;44.158;22.788;2022-09-09T12:52:06;100857.97;;;29.84;38.91
12213;BME280;6169;44.158;22.788;2022-09-09T12:57:13;100853.88;;;30.42;38.15
12213;BME280;6169;44.158;22.788;2022-09-09T13:02:20;100834.81;;;30.47;38.51
12213;BME280;6169;44.158;22.788;2022-09-09T13:07:22;100833.22;;;30.14;39.10
12213;BME280;6169;44.158;22.788;2022-09-09T13:12:27;100834.09;;;30.34;38.61
12213;BME280;6169;44.158;22.788;2022-09-09T13:17:29;100843.94;;;30.12;38.16
12213;BME280;6169;44.158;22.788;2022-09-09T13:22:35;100827.88;;;30.41;37.69
12213;BME280;6169;44.158;22.788;2022-09-09T13:27:41;100816.56;;;30.53;38.18
12213;BME280;6169;44.158;22.788;2022-09-09T13:32:43;100809.63;;;31.18;37.35
12213;BME280;6169;44.158;22.788;2022-09-09T13:37:45;100806.38;;;31.16;37.42
12213;BME280;6169;44.158;22.788;2022-09-09T13:42:51;100814.75;;;30.96;37.58
12213;BME280;6169;44.158;22.788;2022-09-09T13:47:54;100804.50;;;30.85;37.62
12213;BME280;6169;44.158;22.788;2022-09-09T13:52:58;100805.88;;;30.94;37.54
12213;BME280;6169;44.158;22.788;2022-09-09T13:58:03;100782.56;;;30.55;37.35
12213;BME280;6169;44.158;22.788;2022-09-09T14:03:06;100779.22;;;30.14;38.23
12213;BME280;6169;44.158;22.788;2022-09-09T14:08:14;100785.63;;;30.14;37.90
12213;BME280;6169;44.158;22.788;2022-09-09T14:13:18;100783.63;;;30.31;38.18
12213;BME280;6169;44.158;22.788;2022-09-09T14:18:21;100789.03;;;30.55;37.52
12213;BME280;6169;44.158;22.788;2022-09-09T14:23:25;100781.78;;;30.90;36.91
12213;BME280;6169;44.158;22.788;2022-09-09T14:28:29;100776.63;;;30.05;38.13
12213;BME280;6169;44.158;22.788;2022-09-09T14:33:31;100777.91;;;30.43;37.57
12213;BME280;6169;44.158;22.788;2022-09-09T14:38:36;100781.78;;;30.90;37.40
12213;BME280;6169;44.158;22.788;2022-09-09T14:43:41;100779.34;;;30.53;37.81
12213;BME280;6169;44.158;22.788;2022-09-09T14:48:43;100773.88;;;29.77;39.73
12213;BME280;6169;44.158;22.788;2022-09-09T14:53:46;100782.22;;;30.05;39.68
12213;BME280;6169;44.158;22.788;2022-09-09T14:58:50;100790.22;;;30.23;39.66
12213;BME280;6169;44.158;22.788;2022-09-09T15:03:54;100792.22;;;30.22;39.00
12213;BME280;6169;44.158;22.788;2022-09-09T15:08:56;100783.72;;;30.34;39.13
12213;BME280;6169;44.158;22.788;2022-09-09T15:14:01;100785.06;;;29.93;40.35
12213;BME280;6169;44.158;22.788;2022-09-09T15:19:03;100783.47;;;30.08;39.96
12213;BME280;6169;44.158;22.788;2022-09-09T15:24:06;100785.09;;;30.25;40.40
12213;BME280;6169;44.158;22.788;2022-09-09T15:29:10;100777.91;;;29.64;42.26
12213;BME280;6169;44.158;22.788;2022-09-09T15:34:12;100769.63;;;29.39;42.42
12213;BME280;6169;44.158;22.788;2022-09-09T15:39:16;100774.06;;;29.12;43.06
12213;BME280;6169;44.158;22.788;2022-09-09T15:44:20;100632.72;;;27.65;44.74
12213;BME280;6169;44.158;22.788;2022-09-09T15:49:26;100774.03;;;28.35;45.36
12213;BME280;6169;44.158;22.788;2022-09-09T15:54:31;100765.44;;;28.15;46.80
12213;BME280;6169;44.158;22.788;2022-09-09T15:59:35;100718.47;;;28.18;49.23
12213;BME280;6169;44.158;22.788;2022-09-09T16:04:37;100764.97;;;28.75;48.85
12213;BME280;6169;44.158;22.788;2022-09-09T16:09:39;100760.13;;;28.47;50.24
12213;BME280;6169;44.158;22.788;2022-09-09T16:14:45;100770.94;;;28.49;54.03
12213;BME280;6169;44.158;22.788;2022-09-09T16:19:47;100769.41;;;28.27;52.81
12213;BME280;6169;44.158;22.788;2022-09-09T16:24:49;100773.84;;;28.52;54.30
12213;BME280;6169;44.158;22.788;2022-09-09T16:29:53;100777.31;;;28.37;53.36
12213;BME280;6169;44.158;22.788;2022-09-09T16:34:55;100774.41;;;27.97;54.73
12213;BME280;6169;44.158;22.788;2022-09-09T16:39:58;100764.06;;;27.97;56.02
12213;BME280;6169;44.158;22.788;2022-09-09T16:45:01;100758.28;;;27.69;57.04
12213;BME280;6169;44.158;22.788;2022-09-09T16:50:04;100754.78;;;27.26;56.91
12213;BME280;6169;44.158;22.788;2022-09-09T16:55:07;100772.66;;;27.46;56.27
12213;BME280;6169;44.158;22.788;2022-09-09T17:00:11;100777.78;;;27.57;56.52
12213;BME280;6169;44.158;22.788;2022-09-09T17:05:14;100782.38;;;27.40;56.93
12213;BME280;6169;44.158;22.788;2022-09-09T17:10:16;100783.13;;;27.08;58.23
12213;BME280;6169;44.158;22.788;2022-09-09T17:15:20;100778.91;;;27.22;58.34
12213;BME280;6169;44.158;22.788;2022-09-09T17:20:23;100798.06;;;27.24;57.67
12213;BME280;6169;44.158;22.788;2022-09-09T17:25:26;100799.72;;;27.04;57.45
12213;BME280;6169;44.158;22.788;2022-09-09T17:30:30;100803.13;;;26.59;58.25
12213;BME280;6169;44.158;22.788;2022-09-09T17:35:35;100809.06;;;26.78;55.06
12213;BME280;6169;44.158;22.788;2022-09-09T17:40:37;100803.06;;;26.68;54.95
12213;BME280;6169;44.158;22.788;2022-09-09T17:45:41;100808.75;;;26.50;56.01
12213;BME280;6169;44.158;22.788;2022-09-09T17:50:44;100816.03;;;26.64;55.18
12213;BME280;6169;44.158;22.788;2022-09-09T17:55:47;100819.09;;;26.41;55.79
12213;BME280;6169;44.158;22.788;2022-09-09T18:00:51;100803.34;;;26.07;54.86
12213;BME280;6169;44.158;22.788;2022-09-09T18:05:59;100810.16;;;26.18;54.61
12213;BME280;6169;44.158;22.788;2022-09-09T18:11:02;100814.69;;;26.40;54.03
12213;BME280;6169;44.158;22.788;2022-09-09T18:16:07;100815.97;;;25.96;55.60
12213;BME280;6169;44.158;22.788;2022-09-09T18:21:10;100809.88;;;26.11;54.40
12213;BME280;6169;44.158;22.788;2022-09-09T18:26:14;100822.06;;;25.89;55.09
12213;BME280;6169;44.158;22.788;2022-09-09T18:31:20;100827.19;;;25.35;57.21
12213;BME280;6169;44.158;22.788;2022-09-09T18:36:24;100824.06;;;25.10;58.02
12213;BME280;6169;44.158;22.788;2022-09-09T18:41:29;100827.50;;;25.24;57.94
12213;BME280;6169;44.158;22.788;2022-09-09T18:46:34;100768.81;;;24.65;59.30
12213;BME280;6169;44.158;22.788;2022-09-09T18:51:37;100834.00;;;25.02;60.41
12213;BME280;6169;44.158;22.788;2022-09-09T18:56:40;100834.22;;;25.15;59.63
12213;BME280;6169;44.158;22.788;2022-09-09T19:01:44;100828.44;;;24.85;60.99
12213;BME280;6169;44.158;22.788;2022-09-09T19:06:48;100846.13;;;25.07;61.50
12213;BME280;6169;44.158;22.788;2022-09-09T19:11:57;100830.13;;;25.30;60.78
12213;BME280;6169;44.158;22.788;2022-09-09T19:17:02;100832.09;;;25.64;60.53
12213;BME280;6169;44.158;22.788;2022-09-09T19:22:04;100836.00;;;25.37;59.86
12213;BME280;6169;44.158;22.788;2022-09-09T19:27:08;100824.25;;;25.40;60.24
12213;BME280;6169;44.158;22.788;2022-09-09T19:32:12;100831.91;;;25.25;59.14
12213;BME280;6169;44.158;22.788;2022-09-09T19:37:14;100833.56;;;25.26;60.04
12213;BME280;6169;44.158;22.788;2022-09-09T19:42:16;100825.50;;;24.99;60.46
12213;BME280;6169;44.158;22.788;2022-09-09T19:47:20;100828.28;;;24.81;61.76
12213;BME280;6169;44.158;22.788;2022-09-09T19:52:23;100844.28;;;24.85;61.97
12213;BME280;6169;44.158;22.788;2022-09-09T19:57:26;100824.81;;;24.67;61.12
12213;BME280;6169;44.158;22.788;2022-09-09T20:02:31;100824.97;;;24.22;63.57
12213;BME280;6169;44.158;22.788;2022-09-09T20:07:33;100821.66;;;24.11;62.99
12213;BME280;6169;44.158;22.788;2022-09-09T20:12:35;100811.91;;;24.23;63.26
12213;BME280;6169;44.158;22.788;2022-09-09T20:17:39;100805.25;;;24.32;64.74
12213;BME280;6169;44.158;22.788;2022-09-09T20:22:42;100813.34;;;24.51;64.45
12213;BME280;6169;44.158;22.788;2022-09-09T20:27:44;100815.34;;;24.86;65.38
12213;BME280;6169;44.158;22.788;2022-09-09T20:32:48;100816.06;;;25.09;61.77
12213;BME280;6169;44.158;22.788;2022-09-09T20:37:50;100803.94;;;24.78;61.86
12213;BME280;6169;44.158;22.788;2022-09-09T20:42:52;100805.09;;;24.37;64.34
12213;BME280;6169;44.158;22.788;2022-09-09T20:47:55;100800.38;;;23.98;65.96
12213;BME280;6169;44.158;22.788;2022-09-09T20:52:58;100821.53;;;24.25;64.56
12213;BME280;6169;44.158;22.788;2022-09-09T20:58:00;100824.63;;;23.92;65.77
12213;BME280;6169;44.158;22.788;2022-09-09T21:03:03;100823.69;;;23.97;64.03
12213;BME280;6169;44.158;22.788;2022-09-09T21:08:06;100820.38;;;24.17;63.92
12213;BME280;6169;44.158;22.788;2022-09-09T21:13:09;100813.47;;;24.06;64.49
12213;BME280;6169;44.158;22.788;2022-09-09T21:18:12;100824.03;;;24.04;64.08
12213;BME280;6169;44.158;22.788;2022-09-09T21:23:16;100830.28;;;24.10;62.83
12213;BME280;6169;44.158;22.788;2022-09-09T21:28:18;100835.31;;;23.77;64.36
12213;BME280;6169;44.158;22.788;2022-09-09T21:33:24;100838.53;;;24.01;63.24
12213;BME280;6169;44.158;22.788;2022-09-09T21:38:27;100829.50;;;23.87;63.61
12213;BME280;6169;44.158;22.788;2022-09-09T21:43:31;100833.22;;;23.60;63.72
12213;BME280;6169;44.158;22.788;2022-09-09T21:48:35;100837.13;;;23.59;64.13
12213;BME280;6169;44.158;22.788;2022-09-09T21:53:37;100833.03;;;23.56;64.93
12213;BME280;6169;44.158;22.788;2022-09-09T21:58:40;100818.91;;;23.66;63.25
12213;BME280;6169;44.158;22.788;2022-09-09T22:03:44;100822.50;;;23.44;64.44
12213;BME280;6169;44.158;22.788;2022-09-09T22:08:46;100810.66;;;23.75;62.77
12213;BME280;6169;44.158;22.788;2022-09-09T22:13:49;100793.81;;;23.18;65.73
12213;BME280;6169;44.158;22.788;2022-09-09T22:18:55;100811.97;;;22.96;65.93
12213;BME280;6169;44.158;22.788;2022-09-09T22:23:59;100825.25;;;22.72;67.85
12213;BME280;6169;44.158;22.788;2022-09-09T22:29:02;100831.28;;;22.74;67.25
12213;BME280;6169;44.158;22.788;2022-09-09T22:34:06;100816.34;;;23.11;65.57
12213;BME280;6169;44.158;22.788;2022-09-09T22:39:08;100814.19;;;23.22;64.98
12213;BME280;6169;44.158;22.788;2022-09-09T22:44:10;100814.47;;;22.84;67.02
12213;BME280;6169;44.158;22.788;2022-09-09T22:49:15;100806.28;;;23.29;64.91
12213;BME280;6169;44.158;22.788;2022-09-09T22:54:17;100817.00;;;22.94;65.98
12213;BME280;6169;44.158;22.788;2022-09-09T22:59:21;100794.19;;;23.11;64.57
12213;BME280;6169;44.158;22.788;2022-09-09T23:04:25;100792.88;;;22.72;67.39
12213;BME280;6169;44.158;22.788;2022-09-09T23:09:27;100789.97;;;22.77;67.13
12213;BME280;6169;44.158;22.788;2022-09-09T23:14:29;100785.69;;;22.30;70.19
12213;BME280;6169;44.158;22.788;2022-09-09T23:19:34;100778.00;;;22.82;67.12
12213;BME280;6169;44.158;22.788;2022-09-09T23:24:37;100775.56;;;23.03;66.47
12213;BME280;6169;44.158;22.788;2022-09-09T23:29:39;100774.94;;;22.83;67.03
12213;BME280;6169;44.158;22.788;2022-09-09T23:34:43;100770.22;;;22.84;67.14
12213;BME280;6169;44.158;22.788;2022-09-09T23:39:47;100773.94;;;22.66;68.37
12213;BME280;6169;44.158;22.788;2022-09-09T23:44:49;100770.84;;;22.67;68.08
12213;BME280;6169;44.158;22.788;2022-09-09T23:49:53;100764.41;;;22.44;68.94
12213;BME280;6169;44.158;22.788;2022-09-09T23:54:55;100757.84;;;22.68;67.94
12213;BME280;6169;44.158;22.788;2022-09-09T23:59:57;100711.44;;;22.65;66.43
